Time,TemperatureF,DewpointF,PressureIn,WindDirection,WindDirectionDegrees,WindSpeedMPH,WindSpeedGustMPH,Humidity,HourlyPrecipIn,Conditions,Clouds,dailyrainin,SoftwareType,DateUTC
2013-11-03 00:02:00,-999.0,-99.9,-100.00,North,-999,0.0,-999.0,-999,-99.99,,,-99.99,,2013-11-03 04:02:00,
2013-11-03 00:14:00,47.0,42.0,-100.00,North,-999,0.0,-999.0,83,-99.99,,,0.07,,2013-11-03 04:14:00,
2013-11-03 00:23:00,47.0,42.0,-100.00,North,-999,0.0,-999.0,83,-99.99,,,0.07,,2013-11-03 04:23:00,
2013-11-03 00:34:00,47.0,42.0,-100.00,North,-999,0.0,-999.0,83,-99.99,,,0.07,,2013-11-03 04:34:00,
2013-11-03 00:44:00,47.0,42.0,-100.00,North,-999,0.0,-999.0,83,-99.99,,,0.07,,2013-11-03 04:44:00,
2013-11-03 03:11:00,43.0,34.0,-100.00,North,-999,-999.0,-999.0,71,-99.99,,,0.08,,2013-11-03 08:11:00,
2013-11-03 03:21:00,43.0,34.0,-100.00,North,-999,-999.0,-999.0,71,-99.99,,,0.08,,2013-11-03 08:21:00,
2013-11-03 03:32:00,43.0,34.0,-100.00,North,-999,-999.0,-999.0,71,-99.99,,,0.08,,2013-11-03 08:32:00,
2013-11-03 03:42:00,43.0,34.0,-100.00,North,-999,-999.0,-999.0,71,-99.99,,,0.08,,2013-11-03 08:42:00,
2013-11-03 04:12:00,42.0,32.0,-100.00,North,-999,0.0,-999.0,68,0.00,,,0.08,,2013-11-03 09:12:00,
2013-11-03 04:22:00,42.0,32.0,-100.00,North,-999,0.0,-999.0,68,0.00,,,0.08,,2013-11-03 09:22:00,
2013-11-03 04:33:00,42.0,32.0,-100.00,North,-999,0.0,-999.0,68,0.00,,,0.08,,2013-11-03 09:33:00,
2013-11-03 04:42:00,42.0,32.0,-100.00,North,-999,0.0,-999.0,68,0.00,,,0.08,,2013-11-03 09:42:00,
2013-11-03 05:13:00,42.0,32.0,-100.00,North,-999,0.0,-999.0,68,0.00,,,0.08,,2013-11-03 10:13:00,
2013-11-03 05:23:00,42.0,32.0,-100.00,North,-999,0.0,-999.0,68,0.00,,,0.08,,2013-11-03 10:23:00,
2013-11-03 05:33:00,42.0,32.0,-100.00,North,-999,0.0,-999.0,68,0.00,,,0.08,,2013-11-03 10:33:00,
2013-11-03 05:42:00,42.0,32.0,-100.00,North,-999,0.0,-999.0,68,0.00,,,0.08,,2013-11-03 10:42:00,
2013-11-03 06:12:00,42.0,30.0,-100.00,North,-999,-999.0,-999.0,63,0.00,,,0.08,,2013-11-03 11:12:00,
2013-11-03 06:22:00,42.0,30.0,-100.00,North,-999,-999.0,-999.0,63,0.00,,,0.08,,2013-11-03 11:22:00,
2013-11-03 06:33:00,42.0,30.0,-100.00,North,-999,-999.0,-999.0,63,0.00,,,0.08,,2013-11-03 11:33:00,
2013-11-03 06:43:00,42.0,30.0,-100.00,North,-999,-999.0,-999.0,63,0.00,,,0.08,,2013-11-03 11:43:00,
2013-11-03 07:12:00,41.0,32.0,-100.00,North,-999,0.0,-999.0,70,0.00,,,0.08,,2013-11-03 12:12:00,
2013-11-03 07:22:00,41.0,32.0,-100.00,North,-999,0.0,-999.0,70,0.00,,,0.08,,2013-11-03 12:22:00,
2013-11-03 07:32:00,41.0,32.0,-100.00,North,-999,0.0,-999.0,70,0.00,,,0.08,,2013-11-03 12:32:00,
2013-11-03 07:42:00,41.0,32.0,-100.00,North,-999,0.0,-999.0,70,0.00,,,0.08,,2013-11-03 12:42:00,
2013-11-03 08:12:00,40.0,27.0,-100.00,North,-999,0.0,-999.0,60,0.00,,,0.08,,2013-11-03 13:12:00,
2013-11-03 08:22:00,40.0,27.0,-100.00,North,-999,0.0,-999.0,60,0.00,,,0.08,,2013-11-03 13:22:00,
2013-11-03 08:30:00,39.0,27.0,-100.00,North,-999,0.0,-999.0,62,0.00,,,0.08,,2013-11-03 13:30:00,
2013-11-03 08:32:00,40.0,27.0,-100.00,North,-999,0.0,-999.0,60,0.00,,,0.08,,2013-11-03 13:32:00,
2013-11-03 08:42:00,40.0,27.0,-100.00,North,-999,0.0,-999.0,60,0.00,,,0.08,,2013-11-03 13:42:00,
2013-11-03 09:12:00,39.0,27.0,-100.00,North,-999,0.0,-999.0,62,0.00,,,0.08,,2013-11-03 14:12:00,
2013-11-03 09:22:00,39.0,27.0,-100.00,North,-999,0.0,-999.0,62,0.00,,,0.08,,2013-11-03 14:22:00,
2013-11-03 10:11:00,40.0,26.0,-100.00,North,-999,-999.0,-999.0,57,-99.99,,,0.08,,2013-11-03 15:11:00,
2013-11-03 10:22:00,40.0,26.0,-100.00,North,-999,-999.0,-999.0,57,-99.99,,,0.08,,2013-11-03 15:22:00,
2013-11-03 10:33:00,40.0,26.0,-100.00,North,-999,-999.0,-999.0,57,-99.99,,,0.08,,2013-11-03 15:33:00,
2013-11-03 10:43:00,40.0,26.0,-100.00,North,-999,-999.0,-999.0,57,-99.99,,,0.08,,2013-11-03 15:43:00,
2013-11-03 12:13:00,42.0,23.0,-100.00,North,-999,-999.0,-999.0,46,-99.99,,,0.08,,2013-11-03 17:13:00,
2013-11-03 12:23:00,42.0,23.0,-100.00,North,-999,-999.0,-999.0,46,-99.99,,,0.08,,2013-11-03 17:23:00,
2013-11-03 12:33:00,42.0,23.0,-100.00,North,-999,-999.0,-999.0,46,-99.99,,,0.08,,2013-11-03 17:33:00,
2013-11-03 12:43:00,42.0,23.0,-100.00,North,-999,-999.0,-999.0,46,-99.99,,,0.08,,2013-11-03 17:43:00,
2013-11-03 13:12:00,45.0,15.0,-100.00,North,-999,0.0,-999.0,30,0.00,,,0.08,,2013-11-03 18:12:00,
2013-11-03 13:23:00,45.0,15.0,-100.00,North,-999,0.0,-999.0,30,0.00,,,0.08,,2013-11-03 18:23:00,
2013-11-03 13:32:00,45.0,15.0,-100.00,North,-999,0.0,-999.0,30,0.00,,,0.08,,2013-11-03 18:32:00,
2013-11-03 13:42:00,45.0,15.0,-100.00,North,-999,0.0,-999.0,30,0.00,,,0.08,,2013-11-03 18:42:00,
2013-11-03 14:11:00,47.0,15.0,-100.00,North,-999,0.0,-999.0,27,0.00,,,0.08,,2013-11-03 19:11:00,
2013-11-03 14:22:00,47.0,15.0,-100.00,North,-999,0.0,-999.0,27,0.00,,,0.08,,2013-11-03 19:22:00,
2013-11-03 14:33:00,47.0,15.0,-100.00,North,-999,0.0,-999.0,27,0.00,,,0.08,,2013-11-03 19:33:00,
2013-11-03 14:42:00,47.0,15.0,-100.00,North,-999,0.0,-999.0,27,0.00,,,0.08,,2013-11-03 19:42:00,
2013-11-03 15:11:00,44.0,15.0,-100.00,North,-999,-999.0,-999.0,31,0.00,,,0.08,,2013-11-03 20:11:00,
2013-11-03 15:22:00,44.0,15.0,-100.00,North,-999,-999.0,-999.0,31,0.00,,,0.08,,2013-11-03 20:22:00,
2013-11-03 15:32:00,44.0,15.0,-100.00,North,-999,-999.0,-999.0,31,0.00,,,0.08,,2013-11-03 20:32:00,
2013-11-03 15:42:00,44.0,15.0,-100.00,North,-999,-999.0,-999.0,31,0.00,,,0.08,,2013-11-03 20:42:00,
2013-11-03 16:12:00,42.0,15.0,-100.00,North,-999,0.0,-999.0,34,0.00,,,0.08,,2013-11-03 21:12:00,
2013-11-03 16:22:00,42.0,15.0,-100.00,North,-999,0.0,-999.0,34,0.00,,,0.08,,2013-11-03 21:22:00,
2013-11-03 16:34:00,42.0,15.0,-100.00,North,-999,0.0,-999.0,34,0.00,,,0.08,,2013-11-03 21:34:00,
2013-11-03 16:43:00,42.0,15.0,-100.00,North,-999,0.0,-999.0,34,0.00,,,0.08,,2013-11-03 21:43:00,
2013-11-03 17:13:00,40.0,-99.9,-100.00,North,-999,-999.0,-999.0,26,0.00,,,0.08,,2013-11-03 22:13:00,
2013-11-03 17:23:00,40.0,-99.9,-100.00,North,-999,-999.0,-999.0,26,0.00,,,0.08,,2013-11-03 22:23:00,
2013-11-03 17:34:00,40.0,-99.9,-100.00,North,-999,-999.0,-999.0,26,0.00,,,0.08,,2013-11-03 22:34:00,
2013-11-03 17:43:00,40.0,-99.9,-100.00,North,-999,-999.0,-999.0,26,0.00,,,0.08,,2013-11-03 22:43:00,
2013-11-03 19:11:00,36.0,14.0,-100.00,North,-999,-999.0,-999.0,40,-99.99,,,0.08,,2013-11-04 00:11:00,
2013-11-03 19:22:00,36.0,14.0,-100.00,North,-999,-999.0,-999.0,40,-99.99,,,0.08,,2013-11-04 00:22:00,
2013-11-03 19:32:00,36.0,14.0,-100.00,North,-999,-999.0,-999.0,40,-99.99,,,0.08,,2013-11-04 00:32:00,
2013-11-03 19:42:00,36.0,14.0,-100.00,North,-999,-999.0,-999.0,40,-99.99,,,0.08,,2013-11-04 00:42:00,
2013-11-03 20:11:00,34.0,13.0,-100.00,North,-999,0.0,-999.0,41,0.00,,,0.06,,2013-11-04 01:11:00,
2013-11-03 20:22:00,34.0,13.0,-100.00,North,-999,0.0,-999.0,41,0.00,,,0.06,,2013-11-04 01:22:00,
2013-11-03 20:32:00,34.0,13.0,-100.00,North,-999,0.0,-999.0,41,0.00,,,0.06,,2013-11-04 01:32:00,
2013-11-03 20:42:00,34.0,13.0,-100.00,North,-999,0.0,-999.0,41,0.00,,,0.06,,2013-11-04 01:42:00,
2013-11-03 21:12:00,33.0,14.0,-100.00,North,-999,-999.0,-999.0,46,0.00,,,0.01,,2013-11-04 02:12:00,
2013-11-03 21:22:00,33.0,14.0,-100.00,North,-999,-999.0,-999.0,46,0.00,,,0.01,,2013-11-04 02:22:00,
2013-11-03 21:32:00,33.0,14.0,-100.00,North,-999,-999.0,-999.0,46,0.00,,,0.01,,2013-11-04 02:32:00,
2013-11-03 21:42:00,33.0,14.0,-100.00,North,-999,-999.0,-999.0,46,0.00,,,0.01,,2013-11-04 02:42:00,
2013-11-03 22:12:00,30.0,17.0,-100.00,North,-999,0.0,-999.0,57,0.00,,,-99.99,,2013-11-04 03:12:00,
2013-11-03 22:22:00,30.0,17.0,-100.00,North,-999,0.0,-999.0,57,0.00,,,-99.99,,2013-11-04 03:22:00,
2013-11-03 22:34:00,30.0,17.0,-100.00,North,-999,0.0,-999.0,57,0.00,,,-99.99,,2013-11-04 03:34:00,
2013-11-03 22:44:00,30.0,17.0,-100.00,North,-999,0.0,-999.0,57,0.00,,,-99.99,,2013-11-04 03:44:00,
2013-11-03 23:13:00,31.0,16.0,-100.00,North,-999,-999.0,-999.0,53,0.00,,,0.01,,2013-11-04 04:13:00,
2013-11-03 23:24:00,31.0,16.0,-100.00,North,-999,-999.0,-999.0,53,0.00,,,0.01,,2013-11-04 04:24:00,
2013-11-03 23:30:00,31.0,15.0,-100.00,North,-999,0.0,-999.0,51,0.00,,,-99.99,,2013-11-04 04:30:00,
2013-11-03 23:34:00,31.0,16.0,-100.00,North,-999,-999.0,-999.0,53,0.00,,,0.01,,2013-11-04 04:34:00,
2013-11-03 23:43:00,31.0,16.0,-100.00,North,-999,-999.0,-999.0,53,0.00,,,0.01,,2013-11-04 04:43:00,